Time;durP1;ratioP1;P1;durP2;ratioP2;P2;SDS_P1;SDS_P2;PMS_P1;PMS_P2;Temp;Humidity;BMP_temperature;BMP_pressure;BME280_temperature;BME280_humidity;BME280_pressure;Samples;Min_cycle;Max_cycle;Signal;HPM_P1;HPM_P2
2024/03/07 00:00:15;;;;;;;177.27;39.65;;;;;;;5.11;100.00;97859.44;5041863;28;20400;-79
2024/03/07 00:02:41;;;;;;;182.23;39.90;;;;;;;5.10;100.00;97857.00;5045058;28;20903;-80
2024/03/07 00:05:08;;;;;;;188.95;35.63;;;;;;;5.07;100.00;97859.03;5040950;28;20466;-80
2024/03/07 00:07:37;;;;;;;161.80;36.90;;;;;;;5.05;100.00;97850.53;5040888;28;20438;-80
2024/03/07 00:10:04;;;;;;;219.05;44.58;;;;;;;5.03;100.00;97857.81;5040660;28;20415;-80
2024/03/07 00:12:31;;;;;;;174.82;36.90;;;;;;;4.99;100.00;97858.41;5041514;28;20395;-81
2024/03/07 00:14:57;;;;;;;142.60;30.92;;;;;;;4.98;100.00;97859.44;5041906;28;20413;-80
2024/03/07 00:17:25;;;;;;;157.57;35.95;;;;;;;4.93;100.00;97857.44;5041907;28;20450;-80
2024/03/07 00:19:51;;;;;;;120.63;28.73;;;;;;;4.91;100.00;97854.19;5042088;28;20461;-80
2024/03/07 00:22:18;;;;;;;175.10;34.47;;;;;;;4.90;100.00;97862.25;5042146;28;20832;-80
2024/03/07 00:24:47;;;;;;;169.65;34.22;;;;;;;4.87;100.00;97862.69;5041932;28;20825;-80
2024/03/07 00:27:14;;;;;;;150.75;33.42;;;;;;;4.84;100.00;97866.50;5042007;28;20402;-79
2024/03/07 00:29:40;;;;;;;136.73;28.45;;;;;;;4.82;100.00;97857.22;5041656;28;20419;-80
2024/03/07 00:32:07;;;;;;;150.60;30.52;;;;;;;4.80;100.00;97856.63;5042307;28;20884;-79
2024/03/07 00:34:34;;;;;;;171.82;32.78;;;;;;;4.80;100.00;97861.88;5042040;28;20399;-81
2024/03/07 00:37:02;;;;;;;144.32;30.10;;;;;;;4.79;100.00;97861.06;5040608;28;20456;-80
2024/03/07 00:39:30;;;;;;;150.38;30.40;;;;;;;4.78;100.00;97862.06;5041015;28;20472;-80
2024/03/07 00:41:56;;;;;;;184.48;37.42;;;;;;;4.79;100.00;97855.03;5040812;28;20418;-80
2024/03/07 00:44:22;;;;;;;123.43;30.88;;;;;;;4.84;100.00;97856.00;5041343;28;20406;-80
2024/03/07 00:46:48;;;;;;;264.02;53.10;;;;;;;4.79;100.00;97853.19;5050583;28;20390;-81
2024/03/07 00:49:16;;;;;;;199.52;41.95;;;;;;;4.77;100.00;97855.22;5056964;28;20407;-80
2024/03/07 00:51:44;;;;;;;221.67;43.80;;;;;;;4.75;100.00;97851.97;5044839;28;20408;-80
2024/03/07 00:54:12;;;;;;;181.05;39.47;;;;;;;4.74;100.00;97854.78;5041285;28;20426;-80
2024/03/07 00:56:39;;;;;;;149.57;34.15;;;;;;;4.72;100.00;97847.16;5041574;28;20402;-80
2024/03/07 00:59:05;;;;;;;192.93;38.30;;;;;;;4.70;100.00;97848.34;5041616;28;20414;-80
2024/03/07 01:01:33;;;;;;;161.20;36.58;;;;;;;4.68;100.00;97843.31;5042934;28;20449;-81
2024/03/07 01:04:00;;;;;;;242.40;46.30;;;;;;;4.67;100.00;97846.94;5044230;28;20494;-81
2024/03/07 01:06:26;;;;;;;211.27;39.35;;;;;;;4.62;100.00;97841.50;5053057;28;20403;-81
2024/03/07 01:08:53;;;;;;;161.05;34.75;;;;;;;4.59;100.00;97839.25;5053044;28;20426;-80
2024/03/07 01:11:19;;;;;;;151.13;29.85;;;;;;;4.58;100.00;97845.53;5047440;28;20483;-81
2024/03/07 01:13:46;;;;;;;195.77;37.22;;;;;;;4.55;100.00;97836.25;5043214;28;20509;-80
2024/03/07 01:16:12;;;;;;;171.57;31.40;;;;;;;4.55;100.00;97833.63;5040500;28;20410;-81
2024/03/07 01:18:38;;;;;;;142.27;28.90;;;;;;;4.55;100.00;97838.06;5040646;28;20807;-81
2024/03/07 01:21:05;;;;;;;178.23;36.58;;;;;;;4.54;100.00;97833.84;5040957;28;20426;-80
2024/03/07 01:23:32;;;;;;;171.63;37.85;;;;;;;4.51;100.00;97837.66;5041485;28;20404;-81
2024/03/07 01:26:00;;;;;;;218.15;43.92;;;;;;;4.47;100.00;97833.84;5040671;28;20441;-81
2024/03/07 01:28:29;;;;;;;232.40;43.53;;;;;;;4.41;100.00;97824.16;5039839;28;20426;-81
2024/03/07 01:30:56;;;;;;;190.68;40.40;;;;;;;4.33;100.00;97829.59;5040352;28;20421;-80
2024/03/07 01:33:22;;;;;;;174.55;37.75;;;;;;;4.25;100.00;97822.72;5040178;28;20733;-80
2024/03/07 01:35:49;;;;;;;180.63;40.93;;;;;;;4.17;100.00;97822.91;5040055;28;20399;-81
2024/03/07 01:38:15;;;;;;;222.70;40.17;;;;;;;4.10;100.00;97821.28;5042442;28;20434;-81
2024/03/07 01:40:42;;;;;;;145.75;33.28;;;;;;;4.04;100.00;97824.72;5039367;28;20458;-80
2024/03/07 01:43:10;;;;;;;243.55;50.53;;;;;;;3.99;100.00;97821.88;5038948;28;20783;-80
2024/03/07 01:45:37;;;;;;;213.98;41.30;;;;;;;3.90;100.00;97821.25;5039355;28;20818;-81
2024/03/07 01:48:04;;;;;;;192.55;43.67;;;;;;;3.87;100.00;97821.66;5039294;28;20388;-79
2024/03/07 01:50:30;;;;;;;262.58;51.83;;;;;;;3.78;100.00;97813.16;5039143;28;20481;-80
2024/03/07 01:52:56;;;;;;;194.45;39.78;;;;;;;3.70;100.00;97818.56;5039515;28;20407;-80
2024/03/07 01:55:23;;;;;;;259.67;47.00;;;;;;;3.64;100.00;97816.75;5039110;28;20399;-80
2024/03/07 01:57:49;;;;;;;169.80;35.63;;;;;;;3.58;100.00;97820.16;5040810;28;20945;-80
2024/03/07 02:00:17;;;;;;;243.40;44.20;;;;;;;3.47;100.00;97813.66;5038998;28;20489;-81
2024/03/07 02:02:44;;;;;;;232.48;46.45;;;;;;;3.40;100.00;97815.44;5040267;28;20477;-81
2024/03/07 02:05:11;;;;;;;199.52;44.45;;;;;;;3.34;100.00;97811.00;5039452;28;20391;-79
2024/03/07 02:07:38;;;;;;;380.27;71.10;;;;;;;3.28;100.00;97803.13;5040000;28;20557;-79
2024/03/07 02:10:05;;;;;;;356.13;69.05;;;;;;;3.23;100.00;97800.28;5037678;28;20415;-80
2024/03/07 02:12:32;;;;;;;377.50;68.95;;;;;;;3.10;100.00;97801.81;5037482;28;20447;-81
2024/03/07 02:14:58;;;;;;;264.75;50.30;;;;;;;3.02;100.00;97794.13;5037666;28;20395;-80
2024/03/07 02:17:26;;;;;;;344.27;59.60;;;;;;;2.92;100.00;97796.28;5037885;28;20434;-80
2024/03/07 02:19:53;;;;;;;307.58;54.60;;;;;;;2.85;100.00;97797.25;5037288;28;20490;-80
2024/03/07 02:22:20;;;;;;;342.55;74.22;;;;;;;2.88;100.00;97792.44;5039061;28;20411;-80
2024/03/07 02:24:46;;;;;;;328.27;69.80;;;;;;;2.81;100.00;97798.63;5043267;28;20411;-80
2024/03/07 02:27:14;;;;;;;393.13;74.80;;;;;;;2.71;100.00;97791.09;5040493;28;20482;-79
2024/03/07 02:29:40;;;;;;;403.48;75.95;;;;;;;2.64;100.00;97790.25;5041123;28;20490;-79
2024/03/07 02:32:07;;;;;;;347.87;71.33;;;;;;;2.60;100.00;97783.81;5041370;28;20498;-81
2024/03/07 02:34:34;;;;;;;243.80;56.88;;;;;;;2.54;100.00;97789.81;5040908;28;20435;-79
2024/03/07 02:37:00;;;;;;;351.20;71.13;;;;;;;2.46;100.00;97790.75;5040636;28;20455;-80
2024/03/07 02:39:27;;;;;;;519.95;90.10;;;;;;;2.36;100.00;97784.22;5040904;28;20860;-80
2024/03/07 02:41:54;;;;;;;351.60;74.23;;;;;;;2.34;100.00;97777.38;5040961;28;20686;-80
2024/03/07 02:44:20;;;;;;;436.92;72.70;;;;;;;2.25;100.00;97780.34;5040734;28;20392;-80
2024/03/07 02:46:46;;;;;;;271.88;62.55;;;;;;;2.21;100.00;97790.34;5040628;28;20462;-79
2024/03/07 02:49:14;;;;;;;434.73;80.82;;;;;;;2.17;100.00;97786.50;5040394;28;20406;-79
2024/03/07 02:51:41;;;;;;;312.98;69.07;;;;;;;2.15;100.00;97783.25;5040549;28;20427;-79
2024/03/07 02:54:08;;;;;;;373.83;74.13;;;;;;;2.10;100.00;97774.38;5040171;28;20490;-81
2024/03/07 02:56:35;;;;;;;409.10;82.10;;;;;;;2.06;100.00;97775.75;5040463;28;20463;-80
2024/03/07 02:59:01;;;;;;;451.97;89.27;;;;;;;2.02;100.00;97777.94;5040184;28;20478;-79
2024/03/07 03:01:27;;;;;;;498.75;97.40;;;;;;;1.92;100.00;97780.84;5040513;28;20415;-78
2024/03/07 03:03:54;;;;;;;522.90;104.07;;;;;;;1.85;100.00;97772.16;5039939;28;20918;-80
2024/03/07 03:06:22;;;;;;;398.65;84.68;;;;;;;1.82;100.00;97779.53;5040059;28;20879;-80
2024/03/07 03:08:49;;;;;;;407.08;87.05;;;;;;;1.74;100.00;97780.44;5039791;28;20434;-80
2024/03/07 03:11:15;;;;;;;535.47;104.77;;;;;;;1.67;100.00;97778.78;5040453;28;20410;-79
2024/03/07 03:13:43;;;;;;;539.70;109.20;;;;;;;1.61;100.00;97775.09;5040369;28;20398;-79
2024/03/07 03:16:12;;;;;;;306.98;71.15;;;;;;;1.63;100.00;97780.16;5040462;28;20403;-80
2024/03/07 03:18:38;;;;;;;496.70;101.77;;;;;;;1.62;100.00;97770.69;5040244;28;20395;-80
2024/03/07 03:21:05;;;;;;;444.15;95.57;;;;;;;1.55;100.00;97773.25;5040335;28;20401;-79
2024/03/07 03:23:31;;;;;;;492.17;93.38;;;;;;;1.43;100.00;97770.28;5040190;28;20402;-80
2024/03/07 03:25:57;;;;;;;529.17;96.22;;;;;;;1.37;100.00;97772.81;5039911;28;20395;-81
2024/03/07 03:28:24;;;;;;;323.50;75.63;;;;;;;1.39;100.00;97763.84;5039854;28;20403;-79
2024/03/07 03:30:52;;;;;;;436.92;97.45;;;;;;;1.46;100.00;97769.13;5039828;28;20406;-79
2024/03/07 03:33:20;;;;;;;415.75;83.80;;;;;;;1.32;100.00;97775.19;5038632;28;20791;-79
2024/03/07 03:35:47;;;;;;;514.55;94.25;;;;;;;1.27;100.00;97767.09;5042625;28;20458;-80
2024/03/07 03:38:13;;;;;;;403.33;86.50;;;;;;;1.31;100.00;97773.56;5039614;28;21066;-80
2024/03/07 03:40:40;;;;;;;430.17;80.20;;;;;;;1.20;100.00;97766.22;5039959;28;20437;-80
2024/03/07 03:43:06;;;;;;;465.30;82.90;;;;;;;1.19;100.00;97769.81;5040080;28;20442;-79
2024/03/07 03:45:33;;;;;;;534.45;100.80;;;;;;;1.09;100.00;97770.09;5041503;28;20392;-79
2024/03/07 03:48:01;;;;;;;505.92;102.78;;;;;;;1.07;100.00;97759.84;5039049;28;20399;-79
2024/03/07 03:50:28;;;;;;;311.42;68.25;;;;;;;1.05;100.00;97756.59;5039215;28;20395;-79
2024/03/07 03:52:54;;;;;;;486.60;93.32;;;;;;;1.04;100.00;97756.81;5038736;28;20403;-79
2024/03/07 03:55:21;;;;;;;353.83;78.15;;;;;;;1.04;100.00;97760.22;5038590;28;20890;-79
2024/03/07 03:57:48;;;;;;;496.73;86.25;;;;;;;0.96;100.00;97759.50;5038420;28;20403;-80
2024/03/07 04:00:16;;;;;;;304.45;69.47;;;;;;;0.97;100.00;97759.31;5039144;28;20449;-79
2024/03/07 04:02:43;;;;;;;440.95;94.07;;;;;;;1.06;100.00;97762.63;5038024;28;20411;-81
2024/03/07 04:05:13;;;;;;;551.17;117.18;;;;;;;1.03;100.00;97766.41;5038019;28;20400;-79
2024/03/07 04:07:39;;;;;;;560.95;95.50;;;;;;;0.90;100.00;97761.03;5038262;28;20880;-79
2024/03/07 04:10:09;;;;;;;528.45;108.28;;;;;;;0.94;100.00;97759.69;5038189;28;20423;-79
2024/03/07 04:12:37;;;;;;;434.35;90.80;;;;;;;0.89;100.00;97758.59;5038075;28;20429;-79
2024/03/07 04:15:03;;;;;;;523.30;90.53;;;;;;;0.77;100.00;97758.22;5037648;28;20402;-79
2024/03/07 04:17:30;;;;;;;373.38;74.18;;;;;;;0.79;100.00;97748.44;5037765;28;20414;-79
2024/03/07 04:19:58;;;;;;;480.85;94.22;;;;;;;0.72;100.00;97761.38;5038366;28;20438;-80
2024/03/07 04:22:26;;;;;;;345.23;73.30;;;;;;;0.82;100.00;97757.72;5038284;28;20930;-79
2024/03/07 04:24:55;;;;;;;466.63;102.03;;;;;;;0.90;100.00;97749.81;5038623;28;20406;-80
2024/03/07 04:27:21;;;;;;;605.87;118.80;;;;;;;0.76;100.00;97756.63;5038249;28;20465;-79
2024/03/07 04:29:48;;;;;;;334.27;72.88;;;;;;;0.75;100.00;97755.03;5038607;28;20418;-78
2024/03/07 04:32:16;;;;;;;502.87;94.70;;;;;;;0.72;100.00;97753.56;5038939;28;20831;-79
2024/03/07 04:34:43;;;;;;;598.58;116.95;;;;;;;0.68;100.00;97757.50;5039319;28;20430;-79
2024/03/07 04:37:09;;;;;;;476.73;91.53;;;;;;;0.68;100.00;97757.50;5039363;28;20398;-79
2024/03/07 04:39:37;;;;;;;622.13;111.65;;;;;;;0.64;100.00;97750.25;5050779;28;20407;-79
2024/03/07 04:42:04;;;;;;;387.33;74.57;;;;;;;0.61;100.00;97750.59;5044715;28;20780;-78
2024/03/07 04:44:32;;;;;;;512.40;91.32;;;;;;;0.57;100.00;97755.38;5043880;28;20491;-78
2024/03/07 04:47:00;;;;;;;294.88;65.28;;;;;;;0.58;100.00;97756.19;5038004;28;20402;-81
2024/03/07 04:49:28;;;;;;;538.20;90.97;;;;;;;0.49;100.00;97750.22;5033125;28;20429;-78
2024/03/07 04:52:00;;;;;;;396.65;75.53;;;;;;;0.49;100.00;97752.03;5033597;28;20431;-80
2024/03/07 04:54:28;;;;;;;492.13;94.10;;;;;;;0.46;100.00;97750.56;5036550;28;20426;-79
2024/03/07 04:56:55;;;;;;;431.50;79.60;;;;;;;0.42;100.00;97751.13;5022460;28;20407;-81
2024/03/07 04:59:22;;;;;;;522.97;83.10;;;;;;;0.37;100.00;97754.28;5029414;28;20494;-77
2024/03/07 05:01:50;;;;;;;368.85;76.57;;;;;;;0.40;100.00;97753.91;5027602;28;21887;-81
2024/03/07 05:04:17;;;;;;;440.35;91.47;;;;;;;0.43;100.00;97757.94;5032838;28;20462;-79
2024/03/07 05:06:44;;;;;;;478.23;87.82;;;;;;;0.35;100.00;97758.84;5034487;28;20409;-81
2024/03/07 05:09:22;;;;;;;424.52;85.70;;;;;;;0.35;100.00;97762.25;5035882;28;20456;-82
2024/03/07 05:11:51;;;;;;;364.33;75.45;;;;;;;0.32;100.00;97757.38;5033631;28;20410;-80
2024/03/07 05:14:20;;;;;;;647.83;107.70;;;;;;;0.24;100.00;97757.47;5024996;28;20455;-79
2024/03/07 05:17:01;;;;;;;329.25;72.82;;;;;;;0.25;100.00;97761.69;5017867;28;20404;-80
2024/03/07 05:19:28;;;;;;;606.70;110.53;;;;;;;0.16;100.00;97757.53;5023929;28;20930;-79
2024/03/07 05:21:55;;;;;;;414.90;89.07;;;;;;;0.22;100.00;97754.25;5037108;28;20415;-81
2024/03/07 05:24:21;;;;;;;512.15;100.32;;;;;;;0.19;100.00;97756.38;5036560;28;20391;-80
2024/03/07 05:26:47;;;;;;;493.45;91.88;;;;;;;0.11;100.00;97756.44;5036345;28;20477;-80
2024/03/07 05:29:13;;;;;;;318.75;67.68;;;;;;;0.09;100.00;97756.63;5038110;28;20402;-81
2024/03/07 05:31:47;;;;;;;409.35;88.93;;;;;;;0.13;100.00;97744.88;5035042;28;20457;-77
2024/03/07 05:34:14;;;;;;;526.65;103.95;;;;;;;0.08;100.00;97748.97;5037331;28;20478;-80
2024/03/07 05:36:45;;;;;;;540.23;106.07;;;;;;;0.03;100.00;97751.31;5035549;28;20418;-80
2024/03/07 05:39:11;;;;;;;499.63;93.20;;;;;;;0.00;100.00;97747.28;5041044;28;20462;-81
2024/03/07 05:41:37;;;;;;;349.25;72.38;;;;;;;-0.02;100.00;97746.66;5019810;28;20413;-80
2024/03/07 05:44:08;;;;;;;510.92;101.18;;;;;;;-0.04;100.00;97744.22;5015780;28;20463;-80
2024/03/07 05:46:35;;;;;;;415.63;86.53;;;;;;;-0.05;100.00;97744.38;5017696;28;20436;-80
2024/03/07 05:49:03;;;;;;;534.75;108.03;;;;;;;-0.08;100.00;97749.94;5025066;28;20402;-80
2024/03/07 05:51:29;;;;;;;465.80;97.07;;;;;;;-0.05;100.00;97745.19;5036919;28;20421;-79
2024/03/07 05:53:55;;;;;;;523.03;109.00;;;;;;;-0.12;100.00;97748.66;5034379;28;20909;-81
2024/03/07 05:56:22;;;;;;;344.52;77.47;;;;;;;-0.11;100.00;97745.91;5047390;28;20417;-82
2024/03/07 05:58:48;;;;;;;492.38;102.88;;;;;;;-0.16;100.00;97739.59;5056158;28;20398;-83
2024/03/07 06:01:15;;;;;;;386.15;72.97;;;;;;;-0.19;100.00;97748.56;5050997;28;20411;-82
2024/03/07 06:03:42;;;;;;;494.77;96.80;;;;;;;-0.16;100.00;97747.41;5044406;28;20410;-82
2024/03/07 06:06:11;;;;;;;369.48;78.60;;;;;;;-0.16;100.00;97744.81;5045829;28;20391;-81
2024/03/07 06:08:42;;;;;;;489.17;96.88;;;;;;;-0.16;100.00;97742.19;5043746;28;20403;-81
2024/03/07 06:11:08;;;;;;;450.17;88.53;;;;;;;-0.15;100.00;97747.22;5043744;28;20760;-81
2024/03/07 06:13:34;;;;;;;585.78;106.22;;;;;;;-0.19;100.00;97740.75;5044351;28;20403;-82
2024/03/07 06:16:05;;;;;;;315.42;70.90;;;;;;;-0.16;100.00;97744.81;5044397;28;20413;-82
2024/03/07 06:18:31;;;;;;;432.02;89.00;;;;;;;-0.16;100.00;97743.03;5042607;28;20475;-82
2024/03/07 06:20:57;;;;;;;517.10;101.95;;;;;;;-0.17;100.00;97736.19;5043205;28;20410;-82
2024/03/07 06:23:28;;;;;;;497.07;86.93;;;;;;;-0.16;100.00;97744.81;5041998;28;20548;-81
2024/03/07 06:25:55;;;;;;;411.42;84.32;;;;;;;-0.11;100.00;97739.88;5043172;28;20407;-82
2024/03/07 06:28:22;;;;;;;465.70;83.22;;;;;;;-0.10;100.00;97742.31;5044445;28;20402;-82
2024/03/07 06:30:48;;;;;;;304.33;63.70;;;;;;;-0.07;100.00;97733.31;5042719;28;20746;-83
2024/03/07 06:33:16;;;;;;;508.88;91.15;;;;;;;-0.08;100.00;97736.94;5044985;28;20911;-81
2024/03/07 06:35:42;;;;;;;407.48;72.57;;;;;;;-0.04;100.00;97740.78;5043644;28;20403;-81
2024/03/07 06:38:09;;;;;;;383.63;78.15;;;;;;;0.06;100.00;97740.56;5043267;28;20422;-83
2024/03/07 06:40:38;;;;;;;408.60;78.40;;;;;;;0.05;100.00;97739.75;5044499;28;20399;-83
2024/03/07 06:43:06;;;;;;;536.00;98.15;;;;;;;0.07;100.00;97732.59;5029180;28;20524;-83
2024/03/07 06:45:32;;;;;;;452.77;83.88;;;;;;;0.10;100.00;97739.22;5024453;28;20889;-82
2024/03/07 06:47:58;;;;;;;337.88;64.50;;;;;;;0.14;100.00;97741.31;5025561;28;20488;-80
2024/03/07 06:50:24;;;;;;;408.58;83.80;;;;;;;0.18;100.00;97742.56;5024075;28;20456;-82
2024/03/07 06:52:51;;;;;;;392.92;73.25;;;;;;;0.24;100.00;97738.44;5036818;28;20414;-82
2024/03/07 06:55:18;;;;;;;494.75;102.13;;;;;;;0.29;100.00;97739.53;5045267;28;20411;-82
2024/03/07 06:57:46;;;;;;;439.88;82.70;;;;;;;0.35;100.00;97744.03;5046378;28;20403;-81
2024/03/07 07:00:14;;;;;;;388.05;74.22;;;;;;;0.39;100.00;97745.28;5045611;28;20425;-80
2024/03/07 07:02:40;;;;;;;410.10;79.90;;;;;;;0.49;100.00;97749.44;5045486;28;20419;-80
2024/03/07 07:05:11;;;;;;;425.58;75.38;;;;;;;0.56;100.00;97745.94;5045881;28;20930;-82
2024/03/07 07:07:38;;;;;;;361.75;67.57;;;;;;;0.68;100.00;97748.88;5045364;28;20486;-83
2024/03/07 07:10:07;;;;;;;406.65;79.40;;;;;;;0.80;100.00;97747.47;5048105;28;20452;-81
2024/03/07 07:12:34;;;;;;;449.75;85.97;;;;;;;0.93;100.00;97752.03;5051070;28;20414;-83
2024/03/07 07:15:03;;;;;;;391.70;70.50;;;;;;;1.04;100.00;97754.19;5051245;28;20399;-82
2024/03/07 07:17:29;;;;;;;368.17;66.93;;;;;;;1.15;100.00;97749.31;5051693;28;20407;-81
2024/03/07 07:19:57;;;;;;;428.88;73.10;;;;;;;1.26;100.00;97745.44;5050195;28;20426;-81
2024/03/07 07:22:23;;;;;;;378.30;67.53;;;;;;;1.37;100.00;97742.34;5050546;28;20411;-82
2024/03/07 07:24:49;;;;;;;422.27;76.10;;;;;;;1.48;100.00;97734.03;5049741;28;20399;-80
2024/03/07 07:27:15;;;;;;;434.00;78.22;;;;;;;1.56;100.00;97748.78;5049413;28;20399;-81
2024/03/07 07:29:42;;;;;;;422.53;71.80;;;;;;;1.62;100.00;97740.19;5049710;28;20864;-82
2024/03/07 07:32:12;;;;;;;314.13;56.78;;;;;;;1.69;100.00;97735.84;5050418;28;20422;-84
2024/03/07 07:34:42;;;;;;;395.65;73.07;;;;;;;1.77;100.00;97740.94;5051054;28;20407;-82
2024/03/07 07:37:09;;;;;;;365.33;68.60;;;;;;;1.82;100.00;97729.94;5049710;28;20407;-82
2024/03/07 07:39:35;;;;;;;352.73;63.25;;;;;;;1.88;100.00;97726.59;5050601;28;20407;-82
2024/03/07 07:42:02;;;;;;;316.98;56.08;;;;;;;1.96;100.00;97731.66;5049494;28;20438;-82
2024/03/07 07:44:29;;;;;;;278.50;51.33;;;;;;;2.04;100.00;97728.94;5050354;28;20864;-83
2024/03/07 07:46:55;;;;;;;269.90;51.83;;;;;;;2.14;100.00;97733.84;5051821;28;20408;-84
2024/03/07 07:49:25;;;;;;;256.88;49.33;;;;;;;2.27;100.00;97736.53;5050827;28;20431;-83
2024/03/07 07:51:53;;;;;;;297.50;56.97;;;;;;;2.42;100.00;97724.19;5053362;28;20409;-83
2024/03/07 07:54:20;;;;;;;357.17;64.28;;;;;;;2.55;100.00;97715.66;5050864;28;20936;-81
2024/03/07 07:56:48;;;;;;;269.48;51.92;;;;;;;2.68;100.00;97719.13;5050244;28;20399;-82
2024/03/07 07:59:14;;;;;;;297.20;54.85;;;;;;;2.79;100.00;97714.34;5044717;28;21023;-83
2024/03/07 08:01:40;;;;;;;244.43;45.80;;;;;;;2.88;100.00;97714.00;5020961;28;20437;-80
2024/03/07 08:04:09;;;;;;;342.27;65.90;;;;;;;2.92;100.00;97706.59;5020371;28;20447;-82
2024/03/07 08:06:37;;;;;;;297.40;56.58;;;;;;;2.97;100.00;97710.22;5020306;28;20429;-83
2024/03/07 08:09:07;;;;;;;292.77;58.47;;;;;;;3.00;100.00;97707.22;5020509;28;20964;-80
2024/03/07 08:11:33;;;;;;;277.77;57.67;;;;;;;3.04;100.00;97713.69;5022088;28;20461;-79
2024/03/07 08:13:59;;;;;;;243.05;54.17;;;;;;;3.09;100.00;97706.03;5023133;28;20401;-81
2024/03/07 08:16:26;;;;;;;202.57;44.50;;;;;;;3.20;100.00;97706.50;5034181;28;20404;-80
2024/03/07 08:18:52;;;;;;;227.27;48.65;;;;;;;3.36;100.00;97701.72;5034808;28;20396;-78
2024/03/07 08:21:18;;;;;;;211.57;49.22;;;;;;;3.53;100.00;97707.41;5042561;28;20406;-80
2024/03/07 08:23:46;;;;;;;164.38;40.03;;;;;;;3.70;100.00;97708.63;5043588;28;20426;-80
2024/03/07 08:26:12;;;;;;;138.07;36.50;;;;;;;3.85;100.00;97706.63;5042070;28;20419;-81
2024/03/07 08:28:38;;;;;;;208.98;51.45;;;;;;;3.94;100.00;97709.84;5047398;28;20429;-79
2024/03/07 08:31:05;;;;;;;168.60;45.63;;;;;;;4.01;100.00;97707.22;5054004;28;20406;-79
2024/03/07 08:33:33;;;;;;;143.15;39.38;;;;;;;3.95;100.00;97703.63;5044046;28;20545;-81
2024/03/07 08:35:59;;;;;;;105.15;31.67;;;;;;;3.93;100.00;97697.75;5038263;28;20395;-81
2024/03/07 08:38:25;;;;;;;145.90;39.43;;;;;;;3.92;100.00;97698.75;5039042;28;20753;-81
2024/03/07 08:40:53;;;;;;;144.75;40.08;;;;;;;3.94;100.00;97704.63;5038701;28;20395;-83
2024/03/07 08:43:19;;;;;;;119.50;35.13;;;;;;;4.01;100.00;97696.75;5038604;28;20510;-81
2024/03/07 08:45:45;;;;;;;127.82;35.92;;;;;;;4.01;100.00;97702.00;5039305;28;20434;-81
2024/03/07 08:48:13;;;;;;;107.60;34.17;;;;;;;4.03;100.00;97700.81;5044960;28;20456;-82
2024/03/07 08:50:39;;;;;;;164.05;47.53;;;;;;;4.00;100.00;97695.16;5038652;28;20417;-81
2024/03/07 08:53:05;;;;;;;139.35;40.55;;;;;;;4.00;100.00;97703.81;5037315;28;20497;-82
2024/03/07 08:55:32;;;;;;;134.75;40.90;;;;;;;4.03;100.00;97700.81;5036696;28;20914;-82
2024/03/07 08:58:00;;;;;;;93.43;32.78;;;;;;;4.05;100.00;97696.16;5034897;28;20423;-83
2024/03/07 09:00:29;;;;;;;90.22;30.08;;;;;;;4.13;100.00;97697.78;5021248;28;20490;-80
2024/03/07 09:02:59;;;;;;;96.13;31.87;;;;;;;4.16;100.00;97695.53;5030918;28;20434;-80
2024/03/07 09:05:26;;;;;;;79.05;28.73;;;;;;;4.31;100.00;97689.28;5039226;28;20403;-80
2024/03/07 09:07:53;;;;;;;88.45;29.67;;;;;;;4.44;100.00;97691.88;5040710;28;20433;-80
2024/03/07 09:10:20;;;;;;;79.43;28.42;;;;;;;4.51;100.00;97688.22;5048426;28;20434;-81
2024/03/07 09:12:49;;;;;;;72.70;27.58;;;;;;;4.61;100.00;97688.63;5050008;28;20399;-81
2024/03/07 09:15:18;;;;;;;72.78;26.85;;;;;;;4.68;100.00;97684.16;5050202;28;20407;-81
2024/03/07 09:17:47;;;;;;;64.07;27.13;;;;;;;4.76;100.00;97679.72;5050460;28;20475;-80
2024/03/07 09:20:16;;;;;;;59.38;24.83;;;;;;;4.82;100.00;97689.38;5049406;28;20752;-81
2024/03/07 09:22:43;;;;;;;67.88;29.00;;;;;;;4.88;100.00;97681.50;5049918;28;20427;-80
2024/03/07 09:25:10;;;;;;;62.28;25.30;;;;;;;4.95;100.00;97679.66;5047793;28;20409;-82
2024/03/07 09:27:37;;;;;;;96.45;41.03;;;;;;;4.94;100.00;97678.03;5049658;28;20409;-81
2024/03/07 09:30:04;;;;;;;69.03;31.60;;;;;;;5.19;100.00;97677.34;5049837;28;20403;-82
2024/03/07 09:32:33;;;;;;;50.60;25.90;;;;;;;5.36;100.00;97681.06;5048402;28;20407;-82
2024/03/07 09:35:01;;;;;;;41.88;22.25;;;;;;;5.63;100.00;97674.66;5049287;28;20418;-81
2024/03/07 09:37:27;;;;;;;33.38;18.45;;;;;;;5.91;100.00;97676.91;5045555;28;20403;-79
2024/03/07 09:39:53;;;;;;;67.93;34.38;;;;;;;6.42;100.00;97666.13;5044390;28;20396;-82
2024/03/07 09:42:21;;;;;;;58.65;32.25;;;;;;;6.40;100.00;97665.53;5048733;28;20916;-81
2024/03/07 09:44:50;;;;;;;52.22;29.38;;;;;;;6.32;100.00;97671.06;5049351;28;20454;-81
2024/03/07 09:47:18;;;;;;;64.70;34.28;;;;;;;6.52;100.00;97669.09;5048877;28;20399;-82
2024/03/07 09:49:46;;;;;;;54.30;31.30;;;;;;;6.43;100.00;97662.50;5046631;28;20429;-79
2024/03/07 09:52:16;;;;;;;57.13;31.15;;;;;;;6.49;100.00;97672.13;5048983;28;20403;-81
2024/03/07 09:54:44;;;;;;;39.83;23.17;;;;;;;6.60;100.00;97668.00;5048700;28;20400;-82
2024/03/07 09:57:12;;;;;;;36.33;21.98;;;;;;;6.73;100.00;97673.09;5049225;28;20407;-81
2024/03/07 09:59:42;;;;;;;34.20;20.52;;;;;;;6.85;100.00;97670.53;5048330;28;20403;-81
2024/03/07 10:02:13;;;;;;;28.90;18.10;;;;;;;6.98;100.00;97670.41;5048182;28;20410;-81
2024/03/07 10:04:50;;;;;;;30.60;17.75;;;;;;;7.10;100.00;97665.97;5048789;28;20392;-79
2024/03/07 10:07:17;;;;;;;50.30;29.33;;;;;;;7.14;100.00;97663.72;5049967;28;20414;-82
2024/03/07 10:09:44;;;;;;;41.73;24.97;;;;;;;6.96;100.00;97664.53;5048566;28;20474;-81
2024/03/07 10:12:12;;;;;;;43.53;23.90;;;;;;;6.86;100.00;97675.56;5050372;28;20407;-83
2024/03/07 10:14:38;;;;;;;44.95;24.75;;;;;;;6.77;100.00;97673.44;5048821;28;20410;-82
2024/03/07 10:17:05;;;;;;;36.58;21.13;;;;;;;6.68;100.00;97672.97;5048627;28;20480;-83
2024/03/07 10:19:31;;;;;;;33.55;19.25;;;;;;;6.72;100.00;97668.88;5046172;28;20458;-80
2024/03/07 10:22:01;;;;;;;68.72;35.13;;;;;;;7.25;100.00;97657.69;5046362;28;20415;-81
2024/03/07 10:24:27;;;;;;;60.25;31.27;;;;;;;7.23;100.00;97654.47;5046426;28;20748;-81
2024/03/07 10:26:58;;;;;;;34.95;20.90;;;;;;;7.99;100.00;97659.84;5048859;28;20454;-80
2024/03/07 10:29:24;;;;;;;47.03;26.42;;;;;;;8.45;100.00;97656.44;5049388;28;20398;-82
2024/03/07 10:31:50;;;;;;;57.17;30.17;;;;;;;7.88;100.00;97659.84;5048794;28;20407;-82
2024/03/07 10:34:17;;;;;;;40.35;23.15;;;;;;;7.91;100.00;97659.38;5048996;28;20411;-82
2024/03/07 10:36:44;;;;;;;53.47;27.98;;;;;;;7.49;100.00;97655.94;5050553;28;20382;-81
2024/03/07 10:39:14;;;;;;;55.00;30.27;;;;;;;7.42;100.00;97655.25;5049589;28;20395;-81
2024/03/07 10:41:48;;;;;;;41.63;22.60;;;;;;;7.25;100.00;97655.06;5045260;28;20399;-82
2024/03/07 10:44:22;;;;;;;42.88;22.63;;;;;;;7.22;100.00;97660.75;5042292;28;20418;-81
2024/03/07 10:46:53;;;;;;;61.53;32.33;;;;;;;7.84;100.00;97653.38;5050649;28;20406;-80
2024/03/07 10:49:24;;;;;;;53.90;28.92;;;;;;;7.75;100.00;97652.91;5052821;28;20395;-81
2024/03/07 10:52:01;;;;;;;45.80;25.27;;;;;;;7.78;100.00;97653.28;5050905;28;20406;-81
2024/03/07 10:54:46;;;;;;;38.80;21.10;;;;;;;7.83;100.00;97657.84;5053771;28;20402;-82
2024/03/07 10:57:21;;;;;;;36.13;20.33;;;;;;;7.83;100.00;97652.59;5050993;28;20417;-79
2024/03/07 10:59:50;;;;;;;36.33;20.55;;;;;;;7.78;100.00;97650.66;5052443;28;20795;-81
2024/03/07 11:02:27;;;;;;;44.47;24.70;;;;;;;7.72;100.00;97651.56;5053333;28;20418;-81
2024/03/07 11:04:54;;;;;;;45.77;24.07;;;;;;;7.75;100.00;97655.56;5050567;28;20399;-79
2024/03/07 11:07:22;;;;;;;58.30;31.40;;;;;;;7.74;100.00;97653.97;5049576;28;20434;-83
2024/03/07 11:09:51;;;;;;;47.50;26.30;;;;;;;7.66;100.00;97639.28;5051200;28;20427;-82